Time;durP1;ratioP1;P1;durP2;ratioP2;P2;SDS_P1;SDS_P2;PMS_P1;PMS_P2;Temp;Humidity;BMP_temperature;BMP_pressure;BME280_temperature;BME280_humidity;BME280_pressure;Samples;Min_cycle;Max_cycle;Signal;HPM_P1;HPM_P2
2021/12/15 00:00:19;;;;;;;;;;;11.20;99.90;;;;;;4955871;28;19927;-81
2021/12/15 00:02:50;;;;;;;;;;;11.20;99.90;;;;;;4962514;29;20387;-85
2021/12/15 00:05:22;;;;;;;;;;;11.20;99.90;;;;;;4916769;29;19934;-82
2021/12/15 00:07:55;;;;;;;;;;;11.40;99.90;;;;;;4900129;29;19931;-85
2021/12/15 00:10:26;;;;;;;;;;;11.40;99.90;;;;;;4913242;29;19931;-83
2021/12/15 00:12:57;;;;;;;;;;;11.50;99.90;;;;;;4914351;29;19947;-83
2021/12/15 00:15:27;;;;;;;;;;;11.30;99.90;;;;;;4928523;29;19934;-84
2021/12/15 00:18:00;;;;;;;;;;;11.30;99.90;;;;;;4911693;29;20317;-83
2021/12/15 00:20:28;;;;;;;;;;;11.40;99.90;;;;;;4929874;29;19938;-81
2021/12/15 00:22:58;;;;;;;;;;;11.30;99.90;;;;;;4928868;29;19931;-80
2021/12/15 00:25:28;;;;;;;;;;;11.20;99.90;;;;;;4896997;29;19938;-82
2021/12/15 00:27:56;;;;;;;;;;;10.20;99.90;;;;;;4943007;29;19937;-81
2021/12/15 00:30:24;;;;;;;;;;;11.20;99.90;;;;;;4942070;29;19931;-80
2021/12/15 00:32:53;;;;;;;;;;;11.70;99.90;;;;;;4911876;29;19950;-80
2021/12/15 00:35:21;;;;;;;;;;;11.20;99.90;;;;;;4911742;29;19932;-82
2021/12/15 00:37:50;;;;;;;;;;;11.30;99.90;;;;;;4929101;29;19931;-84
2021/12/15 00:40:19;;;;;;;;;;;11.30;99.90;;;;;;4929120;29;19931;-80
2021/12/15 00:42:47;;;;;;;;;;;11.10;99.90;;;;;;4930490;29;19927;-82
2021/12/15 00:45:15;;;;;;;;;;;11.20;99.90;;;;;;4936676;29;19933;-87
2021/12/15 00:47:46;;;;;;;;;;;11.10;99.90;;;;;;4948510;29;20352;-84
2021/12/15 00:50:15;;;;;;;;;;;11.10;99.90;;;;;;4914284;29;19938;-80
2021/12/15 00:52:45;;;;;;;;;;;11.00;99.90;;;;;;4912569;29;19933;-81
2021/12/15 00:55:14;;;;;;;;;;;11.20;99.90;;;;;;4928310;29;19931;-81
2021/12/15 00:57:42;;;;;;;;;;;11.00;99.90;;;;;;4907934;29;19928;-81
2021/12/15 01:00:14;;;;;;;;;;;11.00;99.90;;;;;;4925811;29;19927;-80
2021/12/15 01:02:42;;;;;;;;;;;11.00;99.90;;;;;;4942982;29;19937;-81
2021/12/15 01:05:13;;;;;;;;;;;11.10;99.90;;;;;;4911360;29;20094;-82
2021/12/15 01:07:41;;;;;;;;;;;11.40;99.90;;;;;;4928630;29;19927;-81
2021/12/15 01:10:16;;;;;;;;;;;10.80;99.90;;;;;;4926562;29;20697;-81
2021/12/15 01:21:08;;;;;;;;;;;11.10;99.90;;;;;;4927905;29;19938;-81
2021/12/15 01:23:36;;;;;;;;;;;11.10;99.90;;;;;;4910605;29;19931;-81
2021/12/15 01:26:06;;;;;;;;;;;11.10;99.90;;;;;;4941594;29;19933;-87
2021/12/15 01:28:37;;;;;;;;;;;11.10;99.90;;;;;;4910483;29;19937;-81
2021/12/15 01:31:06;;;;;;;;;;;11.20;99.90;;;;;;4895867;29;19938;-82
2021/12/15 01:33:34;;;;;;;;;;;10.80;99.90;;;;;;4925862;29;19938;-82
2021/12/15 01:36:09;;;;;;;;;;;11.10;99.90;;;;;;4911214;29;19927;-82
2021/12/15 01:38:39;;;;;;;;;;;11.10;99.90;;;;;;4928445;29;20307;-83
2021/12/15 01:41:07;;;;;;;;;;;11.10;99.90;;;;;;4928271;29;20025;-81
2021/12/15 01:49:14;;;;;;;;;;;11.30;99.90;;;;;;4943839;29;19931;-84
2021/12/15 01:51:43;;;;;;;;;;;11.40;99.90;;;;;;4945824;29;19931;-80
2021/12/15 01:54:11;;;;;;;;;;;11.30;99.90;;;;;;4914365;29;19927;-80
2021/12/15 01:56:39;;;;;;;;;;;11.40;99.90;;;;;;4919793;29;19927;-80
2021/12/15 01:59:08;;;;;;;;;;;11.40;99.90;;;;;;4930824;29;19927;-81
2021/12/15 02:01:36;;;;;;;;;;;11.50;99.90;;;;;;4928549;29;19937;-81
2021/12/15 02:04:05;;;;;;;;;;;11.50;99.90;;;;;;4929980;29;19931;-83
2021/12/15 02:06:42;;;;;;;;;;;11.50;99.90;;;;;;4942148;29;19927;-80
2021/12/15 02:09:12;;;;;;;;;;;11.50;99.90;;;;;;4926225;29;19935;-81
2021/12/15 02:11:41;;;;;;;;;;;11.60;99.90;;;;;;4910802;29;19937;-84
2021/12/15 02:14:11;;;;;;;;;;;11.50;99.90;;;;;;4909041;29;19927;-82
2021/12/15 02:16:41;;;;;;;;;;;11.60;99.90;;;;;;4892981;29;19937;-82
2021/12/15 02:19:10;;;;;;;;;;;11.60;99.90;;;;;;4907191;29;19928;-82
2021/12/15 02:21:41;;;;;;;;;;;11.50;99.90;;;;;;4919686;29;20095;-82
2021/12/15 02:24:10;;;;;;;;;;;11.50;99.90;;;;;;4907649;29;19931;-81
2021/12/15 02:26:44;;;;;;;;;;;11.50;99.90;;;;;;4909546;29;19947;-80
2021/12/15 02:29:15;;;;;;;;;;;11.50;99.90;;;;;;4925756;29;19934;-79
2021/12/15 02:31:58;;;;;;;;;;;11.50;99.90;;;;;;4928622;29;19946;-81
2021/12/15 02:37:18;;;;;;;;;;;11.60;99.90;;;;;;4929325;29;19960;-83
2021/12/15 02:40:00;;;;;;;;;;;11.50;99.90;;;;;;4911035;29;20470;-82
2021/12/15 02:42:31;;;;;;;;;;;11.50;99.90;;;;;;4932545;29;19931;-81
2021/12/15 02:44:59;;;;;;;;;;;11.50;99.90;;;;;;4909286;29;20402;-81
2021/12/15 02:47:29;;;;;;;;;;;11.50;99.90;;;;;;4926841;29;19938;-80
2021/12/15 02:49:59;;;;;;;;;;;11.50;99.90;;;;;;4911532;29;19927;-80
2021/12/15 02:52:28;;;;;;;;;;;11.50;99.90;;;;;;4928273;29;19927;-81
2021/12/15 02:54:56;;;;;;;;;;;11.50;99.90;;;;;;4911105;29;19934;-82
2021/12/15 02:57:23;;;;;;;;;;;11.50;99.90;;;;;;4927333;29;20422;-80
2021/12/15 03:05:13;;;;;;;;;;;11.60;99.90;;;;;;4908681;29;19934;-80
2021/12/15 03:08:46;;;;;;;;;;;11.60;99.90;;;;;;4893840;29;20864;-80
2021/12/15 03:16:05;;;;;;;;;;;11.60;99.90;;;;;;4913599;29;19927;-81
2021/12/15 03:18:34;;;;;;;;;;;11.60;99.90;;;;;;4912774;29;20337;-81
2021/12/15 03:21:15;;;;;;;;;;;11.70;99.90;;;;;;4939257;29;19938;-81
2021/12/15 03:23:50;;;;;;;;;;;11.60;99.90;;;;;;4930310;29;19934;-79
2021/12/15 03:26:24;;;;;;;;;;;11.70;99.90;;;;;;4941206;29;19930;-81
2021/12/15 03:37:20;;;;;;;;;;;11.80;99.90;;;;;;4933007;29;19923;-86
2021/12/15 03:39:58;;;;;;;;;;;11.80;99.90;;;;;;4915608;29;19937;-80
2021/12/15 03:42:33;;;;;;;;;;;11.90;99.90;;;;;;4915080;29;19946;-82
2021/12/15 03:45:04;;;;;;;;;;;11.90;99.90;;;;;;4946269;29;19927;-84
2021/12/15 03:47:33;;;;;;;;;;;11.90;99.90;;;;;;4945908;29;19937;-81
2021/12/15 03:50:04;;;;;;;;;;;11.90;99.90;;;;;;4930820;29;19928;-79
2021/12/15 03:52:32;;;;;;;;;;;12.00;99.90;;;;;;4937353;29;19927;-81
2021/12/15 03:55:01;;;;;;;;;;;12.10;99.90;;;;;;4914750;29;19927;-80
2021/12/15 03:57:29;;;;;;;;;;;12.00;99.90;;;;;;4931382;29;19934;-80
2021/12/15 03:59:58;;;;;;;;;;;11.90;99.90;;;;;;4923454;29;19937;-80
2021/12/15 04:02:26;;;;;;;;;;;12.10;99.90;;;;;;4928708;29;19931;-80
2021/12/15 04:04:54;;;;;;;;;;;12.00;99.90;;;;;;4929191;29;19927;-80
2021/12/15 04:07:23;;;;;;;;;;;12.60;99.90;;;;;;4912967;29;19938;-81
2021/12/15 04:09:51;;;;;;;;;;;12.00;99.90;;;;;;4929929;29;20933;-82
2021/12/15 04:12:20;;;;;;;;;;;11.90;99.90;;;;;;4930461;29;19931;-82
2021/12/15 04:14:55;;;;;;;;;;;12.00;99.90;;;;;;4930443;29;20016;-82
2021/12/15 04:17:26;;;;;;;;;;;12.00;99.90;;;;;;4914289;29;19935;-80
2021/12/15 04:19:56;;;;;;;;;;;12.00;99.90;;;;;;4933739;29;19949;-83
2021/12/15 04:22:26;;;;;;;;;;;11.90;99.90;;;;;;4917290;29;19946;-80
2021/12/15 04:24:57;;;;;;;;;;;11.90;99.90;;;;;;4932075;29;19941;-85
2021/12/15 04:27:25;;;;;;;;;;;11.90;99.90;;;;;;4932617;29;19945;-81
2021/12/15 04:29:53;;;;;;;;;;;12.40;99.90;;;;;;4918485;29;19934;-80
2021/12/15 04:32:31;;;;;;;;;;;12.00;99.90;;;;;;4915664;29;19952;-83
2021/12/15 04:34:59;;;;;;;;;;;11.90;99.90;;;;;;4914455;29;19927;-82
2021/12/15 04:37:27;;;;;;;;;;;11.90;99.90;;;;;;4910211;29;19927;-81
2021/12/15 04:39:58;;;;;;;;;;;11.90;99.90;;;;;;4913210;29;19946;-80
2021/12/15 04:42:28;;;;;;;;;;;11.90;99.90;;;;;;4923826;29;19931;-81
2021/12/15 04:44:56;;;;;;;;;;;11.80;99.90;;;;;;4916171;29;19934;-81
2021/12/15 04:47:25;;;;;;;;;;;11.90;99.90;;;;;;4931887;29;19938;-89
2021/12/15 04:49:59;;;;;;;;;;;12.00;99.90;;;;;;4928204;29;19936;-85
2021/12/15 04:52:30;;;;;;;;;;;11.70;99.90;;;;;;4913391;29;19927;-82
2021/12/15 04:54:59;;;;;;;;;;;12.10;99.90;;;;;;4895513;29;19938;-80
2021/12/15 04:57:28;;;;;;;;;;;12.10;99.90;;;;;;4910549;29;19932;-80
2021/12/15 04:59:56;;;;;;;;;;;12.10;99.90;;;;;;4923865;29;19927;-84
2021/12/15 05:02:26;;;;;;;;;;;12.10;99.90;;;;;;4895244;29;19928;-85
2021/12/15 05:04:54;;;;;;;;;;;12.20;99.90;;;;;;4893591;29;19932;-81
2021/12/15 05:07:22;;;;;;;;;;;12.10;99.90;;;;;;4893424;29;19931;-80
2021/12/15 05:09:51;;;;;;;;;;;12.30;99.90;;;;;;4892835;29;19931;-81
2021/12/15 05:12:19;;;;;;;;;;;12.10;99.90;;;;;;4895051;29;19927;-84
2021/12/15 05:14:51;;;;;;;;;;;12.20;99.90;;;;;;4912176;29;19928;-81
2021/12/15 05:17:18;;;;;;;;;;;12.20;99.90;;;;;;4912818;29;19927;-84
2021/12/15 05:19:49;;;;;;;;;;;12.10;99.90;;;;;;4910130;29;20608;-82
2021/12/15 05:22:18;;;;;;;;;;;12.10;99.90;;;;;;4926147;29;19927;-86
2021/12/15 05:24:45;;;;;;;;;;;12.20;99.90;;;;;;4911034;29;20435;-81
2021/12/15 05:27:15;;;;;;;;;;;12.20;99.90;;;;;;4924145;29;19931;-81
2021/12/15 05:29:43;;;;;;;;;;;12.10;99.90;;;;;;4902848;29;19970;-80
2021/12/15 05:32:17;;;;;;;;;;;12.20;99.90;;;;;;4894039;29;19931;-81
2021/12/15 05:34:46;;;;;;;;;;;12.30;99.90;;;;;;4906856;29;19934;-80
2021/12/15 05:37:16;;;;;;;;;;;12.30;99.90;;;;;;4878889;29;19931;-81
2021/12/15 05:39:44;;;;;;;;;;;12.40;99.90;;;;;;4911810;29;19931;-81
2021/12/15 05:42:12;;;;;;;;;;;12.30;99.90;;;;;;4912224;29;19949;-80
2021/12/15 05:44:40;;;;;;;;;;;12.30;99.90;;;;;;4909710;29;19927;-80
2021/12/15 05:47:08;;;;;;;;;;;12.40;99.90;;;;;;4908493;29;19942;-80
2021/12/15 05:49:37;;;;;;;;;;;12.40;99.90;;;;;;4908749;29;19931;-82
2021/12/15 05:52:05;;;;;;;;;;;12.30;99.90;;;;;;4908997;29;19931;-81
2021/12/15 05:54:34;;;;;;;;;;;12.30;99.90;;;;;;4893030;29;19931;-81
2021/12/15 05:57:02;;;;;;;;;;;12.30;99.90;;;;;;4920996;29;19935;-80
2021/12/15 05:59:32;;;;;;;;;;;12.30;99.90;;;;;;4922176;29;19927;-82
2021/12/15 06:02:00;;;;;;;;;;;12.30;99.90;;;;;;4879230;29;19927;-84
2021/12/15 06:04:29;;;;;;;;;;;12.30;99.90;;;;;;4889363;29;20015;-80
2021/12/15 06:06:57;;;;;;;;;;;12.40;99.90;;;;;;4907579;29;19928;-81
2021/12/15 06:09:25;;;;;;;;;;;12.30;99.90;;;;;;4910247;29;19935;-81
2021/12/15 06:11:54;;;;;;;;;;;12.50;99.90;;;;;;4911427;29;19928;-84
2021/12/15 06:14:24;;;;;;;;;;;12.50;99.90;;;;;;4944096;29;19937;-83
2021/12/15 06:16:55;;;;;;;;;;;12.30;99.90;;;;;;4892805;29;20009;-82
2021/12/15 06:19:23;;;;;;;;;;;12.30;99.90;;;;;;4928801;29;19934;-83
2021/12/15 06:21:54;;;;;;;;;;;12.30;99.90;;;;;;4912394;29;19927;-82
2021/12/15 06:24:22;;;;;;;;;;;12.30;99.90;;;;;;4928889;29;19942;-80
2021/12/15 06:26:50;;;;;;;;;;;12.20;99.90;;;;;;4914461;29;19934;-81
2021/12/15 06:29:20;;;;;;;;;;;12.20;99.90;;;;;;4906159;29;19931;-81
2021/12/15 06:31:48;;;;;;;;;;;12.20;99.90;;;;;;4914726;29;19937;-81
2021/12/15 06:34:15;;;;;;;;;;;12.20;99.90;;;;;;4925661;29;19927;-81
2021/12/15 06:36:43;;;;;;;;;;;12.20;99.90;;;;;;4896261;29;19939;-81
2021/12/15 06:39:14;;;;;;;;;;;12.30;99.90;;;;;;4926490;29;19931;-80
2021/12/15 06:41:42;;;;;;;;;;;12.20;99.90;;;;;;4908869;29;19927;-81
2021/12/15 06:44:13;;;;;;;;;;;12.20;99.90;;;;;;4925877;29;19934;-88
2021/12/15 06:47:17;;;;;;;;;;;12.20;99.90;;;;;;4927169;29;19933;-82
2021/12/15 07:00:35;;;;;;;;;;;12.20;99.90;;;;;;4898559;29;19927;-81
2021/12/15 07:03:03;;;;;;;;;;;12.20;99.90;;;;;;4932026;29;19933;-82
2021/12/15 07:05:32;;;;;;;;;;;12.20;99.90;;;;;;4933548;29;19931;-81
2021/12/15 07:12:45;;;;;;;;;;;12.30;99.90;;;;;;4933224;29;19937;-92
2021/12/15 07:20:37;;;;;;;;;;;12.40;99.90;;;;;;4921980;29;19938;-92
2021/12/15 07:24:10;;;;;;;;;;;12.50;99.90;;;;;;4947792;29;19934;-81
2021/12/15 07:26:41;;;;;;;;;;;12.40;99.90;;;;;;4931715;29;19934;-82
2021/12/15 07:29:09;;;;;;;;;;;13.50;99.90;;;;;;4950488;29;19945;-81
2021/12/15 07:31:39;;;;;;;;;;;12.40;99.90;;;;;;4926329;29;19937;-84
2021/12/15 07:34:07;;;;;;;;;;;12.60;99.90;;;;;;4930749;29;19927;-84
2021/12/15 07:36:35;;;;;;;;;;;13.60;99.90;;;;;;4929647;29;19927;-80
2021/12/15 07:39:11;;;;;;;;;;;12.40;99.90;;;;;;4912168;29;19942;-84
2021/12/15 07:41:52;;;;;;;;;;;12.40;99.90;;;;;;4945655;29;19931;-81
2021/12/15 07:44:21;;;;;;;;;;;12.50;99.90;;;;;;4915813;29;19942;-83
2021/12/15 07:46:52;;;;;;;;;;;12.60;99.90;;;;;;4931402;29;19931;-85
2021/12/15 07:49:42;;;;;;;;;;;13.20;99.90;;;;;;4952643;29;19984;-88
2021/12/15 07:52:54;;;;;;;;;;;12.60;99.90;;;;;;4934536;29;20380;-83
2021/12/15 07:55:45;;;;;;;;;;;12.30;99.90;;;;;;4920445;29;19927;-84
2021/12/15 07:58:22;;;;;;;;;;;12.60;99.90;;;;;;4924606;29;19937;-84
2021/12/15 08:01:14;;;;;;;;;;;12.40;99.90;;;;;;4941911;29;19911;-84
2021/12/15 08:04:09;;;;;;;;;;;12.40;99.90;;;;;;4918530;29;19938;-83
2021/12/15 08:06:55;;;;;;;;;;;12.40;99.90;;;;;;4933295;29;19931;-84
2021/12/15 08:10:08;;;;;;;;;;;;;;;;;;;;;
2021/12/15 08:13:18;;;;;;;;;;;12.40;99.90;;;;;;4915268;29;19923;-86
2021/12/15 08:48:32;;;;;;;;;;;13.10;99.90;;;;;;4889585;27;7360072;-91
2021/12/15 08:51:50;;;;;;;;;;;12.50;99.90;;;;;;5129900;28;19928;-92
2021/12/15 08:54:59;;;;;;;;;;;12.60;99.90;;;;;;5115733;28;19938;-92
2021/12/15 08:57:52;;;;;;;;;;;12.60;99.90;;;;;;5093047;23;19925;-84
2021/12/15 09:00:35;;;;;;;;;;;12.60;99.90;;;;;;5036630;28;19936;-81
2021/12/15 09:03:08;;;;;;;;;;;12.60;99.90;;;;;;5058293;28;19936;-83
2021/12/15 09:05:58;;;;;;;;;;;;;;;;;;;;;
2021/12/15 09:09:12;;;;;;;;;;;12.70;99.90;;;;;;5043315;28;19925;-84
2021/12/15 09:11:48;;;;;;;;;;;14.50;99.90;;;;;;5026881;28;19925;-81
2021/12/15 09:14:20;;;;;;;;;;;12.70;99.90;;;;;;5044017;28;19941;-83
2021/12/15 09:16:50;;;;;;;;;;;12.70;99.90;;;;;;5044671;28;19930;-83
2021/12/15 09:19:21;;;;;;;;;;;12.70;99.90;;;;;;5046382;28;19933;-86
2021/12/15 09:22:09;;;;;;;;;;;12.70;99.90;;;;;;5045572;28;20148;-85
2021/12/15 09:24:43;;;;;;;;;;;12.70;99.90;;;;;;5044985;28;19939;-82
2021/12/15 09:27:16;;;;;;;;;;;13.00;99.90;;;;;;5043221;28;20126;-85
2021/12/15 09:30:12;;;;;;;;;;;13.00;99.90;;;;;;5025249;28;19929;-84
2021/12/15 09:33:44;;;;;;;;;;;12.80;99.90;;;;;;5041556;28;19930;-87
2021/12/15 09:36:35;;;;;;;;;;;13.70;99.90;;;;;;5040852;28;19929;-82
2021/12/15 09:39:10;;;;;;;;;;;12.80;99.90;;;;;;5053927;28;19925;-84
2021/12/15 09:41:42;;;;;;;;;;;13.00;99.90;;;;;;5038133;28;19935;-84
2021/12/15 09:45:46;;;;;;;;;;;12.80;99.90;;;;;;5044850;28;19925;-82
2021/12/15 10:02:42;;;;;;;;;;;13.40;99.90;;;;;;5054164;28;20000;-85
2021/12/15 10:19:38;;;;;;;;;;;13.00;99.90;;;;;;5049192;28;19929;-84
2021/12/15 10:22:13;;;;;;;;;;;14.80;99.90;;;;;;5031596;28;19931;-82
2021/12/15 10:25:01;;;;;;;;;;;13.10;99.90;;;;;;5049756;28;19975;-84
2021/12/15 10:27:37;;;;;;;;;;;13.50;99.90;;;;;;5028367;28;19925;-82
2021/12/15 10:30:09;;;;;;;;;;;12.20;99.90;;;;;;5047544;28;19935;-82
2021/12/15 10:32:42;;;;;;;;;;;13.10;99.90;;;;;;5050393;28;19925;-82
2021/12/15 10:35:18;;;;;;;;;;;12.40;99.90;;;;;;5031760;28;19928;-82
2021/12/15 10:38:07;;;;;;;;;;;13.60;99.90;;;;;;5069636;28;19935;-84
2021/12/15 10:40:41;;;;;;;;;;;13.20;99.90;;;;;;5070406;28;19931;-82
2021/12/15 10:43:19;;;;;;;;;;;14.10;99.90;;;;;;5070899;28;19928;-85
2021/12/15 10:45:51;;;;;;;;;;;13.30;99.90;;;;;;5066036;28;20084;-85
2021/12/15 10:48:35;;;;;;;;;;;13.30;99.90;;;;;;5044361;28;19939;-81
2021/12/15 10:51:17;;;;;;;;;;;13.30;99.90;;;;;;5033357;28;20418;-82
2021/12/15 10:53:46;;;;;;;;;;;13.30;99.90;;;;;;5047400;28;19931;-81
2021/12/15 10:56:17;;;;;;;;;;;13.30;99.90;;;;;;5013307;28;20370;-85
2021/12/15 10:58:47;;;;;;;;;;;13.40;99.90;;;;;;5047833;28;19925;-81
2021/12/15 11:01:37;;;;;;;;;;;13.30;99.90;;;;;;5030153;28;19932;-81
2021/12/15 11:04:25;;;;;;;;;;;13.40;99.90;;;;;;5024656;28;19930;-80
2021/12/15 11:07:20;;;;;;;;;;;13.40;99.90;;;;;;5041753;28;19935;-81
2021/12/15 11:10:06;;;;;;;;;;;13.30;99.90;;;;;;5001640;28;19932;-81
2021/12/15 11:12:38;;;;;;;;;;;13.40;99.90;;;;;;5007697;28;19932;-81
2021/12/15 11:15:12;;;;;;;;;;;13.50;99.90;;;;;;5023086;28;19932;-82
2021/12/15 11:17:45;;;;;;;;;;;13.40;99.90;;;;;;5024727;28;19929;-81
2021/12/15 11:20:16;;;;;;;;;;;13.50;99.90;;;;;;5040983;28;19940;-84
2021/12/15 11:22:47;;;;;;;;;;;13.40;99.90;;;;;;5048806;28;19925;-80
2021/12/15 11:25:19;;;;;;;;;;;13.10;99.90;;;;;;5048797;28;19929;-82
2021/12/15 11:27:58;;;;;;;;;;;13.50;99.90;;;;;;5050028;28;19929;-82
2021/12/15 11:30:35;;;;;;;;;;;13.50;99.90;;;;;;5028798;28;19925;-81
2021/12/15 11:33:12;;;;;;;;;;;13.50;99.90;;;;;;5029431;28;20240;-81
2021/12/15 11:35:45;;;;;;;;;;;13.60;99.90;;;;;;5028159;28;20382;-82
2021/12/15 11:38:17;;;;;;;;;;;13.50;99.90;;;;;;5027897;28;19929;-83
2021/12/15 11:40:53;;;;;;;;;;;13.60;99.90;;;;;;5028820;28;19940;-82
2021/12/15 11:43:50;;;;;;;;;;;12.80;99.90;;;;;;5028984;28;19933;-83
2021/12/15 11:46:25;;;;;;;;;;;12.00;99.90;;;;;;5033266;28;20422;-80
2021/12/15 11:48:58;;;;;;;;;;;13.60;99.90;;;;;;5047720;28;20449;-82
2021/12/15 11:51:28;;;;;;;;;;;13.50;99.90;;;;;;5031799;28;20312;-82
2021/12/15 11:53:56;;;;;;;;;;;13.60;99.90;;;;;;5048629;28;19935;-81
2021/12/15 11:56:35;;;;;;;;;;;13.80;99.90;;;;;;5032825;28;19935;-83
2021/12/15 11:59:16;;;;;;;;;;;13.70;99.90;;;;;;5045428;28;19935;-81
2021/12/15 12:01:51;;;;;;;;;;;13.50;99.90;;;;;;5030715;28;19929;-81
2021/12/15 12:04:27;;;;;;;;;;;13.80;99.90;;;;;;5047142;28;19940;-84
2021/12/15 12:07:11;;;;;;;;;;;13.70;99.90;;;;;;5033950;28;19913;-83
2021/12/15 12:09:44;;;;;;;;;;;13.60;99.90;;;;;;5037114;28;19919;-83
2021/12/15 12:12:25;;;;;;;;;;;13.60;99.90;;;;;;5051247;28;19925;-84
2021/12/15 12:14:53;;;;;;;;;;;13.70;99.90;;;;;;5028647;28;19929;-81
2021/12/15 12:17:24;;;;;;;;;;;14.90;99.90;;;;;;5036454;28;19925;-81
2021/12/15 12:19:57;;;;;;;;;;;13.60;99.90;;;;;;5043331;28;19940;-81
2021/12/15 12:22:27;;;;;;;;;;;13.60;99.90;;;;;;5028106;28;19939;-84
2021/12/15 12:24:57;;;;;;;;;;;13.70;99.90;;;;;;5031595;28;19925;-81
2021/12/15 12:27:28;;;;;;;;;;;13.60;99.90;;;;;;5047125;28;19933;-81
2021/12/15 12:29:58;;;;;;;;;;;13.70;99.90;;;;;;5028528;28;19929;-81
2021/12/15 12:32:28;;;;;;;;;;;13.90;99.90;;;;;;5029514;28;19939;-82
2021/12/15 12:34:58;;;;;;;;;;;13.70;99.90;;;;;;5011701;28;19929;-81
2021/12/15 12:37:32;;;;;;;;;;;13.60;99.90;;;;;;5046225;28;19933;-83
2021/12/15 12:40:20;;;;;;;;;;;13.60;99.90;;;;;;5047605;28;19926;-81
2021/12/15 12:42:55;;;;;;;;;;;13.60;99.90;;;;;;5029267;28;19929;-81
2021/12/15 12:45:36;;;;;;;;;;;13.70;99.90;;;;;;5018799;28;19940;-82
2021/12/15 12:59:48;;;;;;;;;;;14.90;99.90;;;;;;5046810;28;19925;-80
2021/12/15 13:02:33;;;;;;;;;;;13.70;99.90;;;;;;5047180;28;19925;-81
2021/12/15 13:05:06;;;;;;;;;;;13.50;99.90;;;;;;5025363;28;19929;-83
2021/12/15 13:07:48;;;;;;;;;;;13.80;99.90;;;;;;5013726;28;19929;-83
2021/12/15 13:10:22;;;;;;;;;;;13.50;99.90;;;;;;5046663;28;19925;-82
2021/12/15 13:13:19;;;;;;;;;;;15.50;99.90;;;;;;5030457;28;19932;-81
2021/12/15 13:15:55;;;;;;;;;;;13.70;99.90;;;;;;5031613;28;20308;-82
2021/12/15 13:18:50;;;;;;;;;;;13.90;99.90;;;;;;5048580;28;19925;-81
2021/12/15 13:21:59;;;;;;;;;;;;;;;;;;;;;
2021/12/15 13:31:13;;;;;;;;;;;13.70;99.90;;;;;;5035847;28;19951;-82
2021/12/15 13:34:12;;;;;;;;;;;;;;;;;;;;;
2021/12/15 13:38:15;;;;;;;;;;;12.90;99.90;;;;;;4976614;28;19941;-83
2021/12/15 13:42:13;;;;;;;;;;;14.00;99.90;;;;;;4979555;28;19933;-83
2021/12/15 13:53:10;;;;;;;;;;;13.60;99.90;;;;;;4279403;26;19926;-82
2021/12/15 13:57:07;;;;;;;;;;;15.00;99.90;;;;;;4955678;29;19937;-82
2021/12/15 14:00:10;;;;;;;;;;;13.70;99.90;;;;;;4844141;29;19935;-81
2021/12/15 14:03:06;;;;;;;;;;;;;;;;;;;;;
2021/12/15 14:06:25;;;;;;;;;;;;;;;;;;;;;
2021/12/15 14:10:31;;;;;;;;;;;;;;;;;;;;;
2021/12/15 14:14:12;;;;;;;;;;;13.80;99.90;;;;;;4855191;29;19935;-82
2021/12/15 14:18:08;;;;;;;;;;;13.50;99.90;;;;;;4929444;29;19911;-83
2021/12/15 14:21:48;;;;;;;;;;;13.70;99.90;;;;;;4963394;29;20033;-83
2021/12/15 14:29:11;;;;;;;;;;;;;;;;;;;;;
2021/12/15 14:32:51;;;;;;;;;;;14.00;99.90;;;;;;4907283;29;19926;-82
2021/12/15 14:36:54;;;;;;;;;;;13.70;99.90;;;;;;4874027;29;19928;-84
2021/12/15 14:49:05;;;;;;;;;;;12.60;99.90;;;;;;4852191;29;19927;-83
2021/12/15 14:52:22;;;;;;;;;;;;;;;;;;;;;
2021/12/15 14:55:31;;;;;;;;;;;13.70;99.90;;;;;;4896495;29;19928;-81
2021/12/15 14:58:41;;;;;;;;;;;;;;;;;;;;;
2021/12/15 15:02:07;;;;;;;;;;;13.50;99.90;;;;;;4863102;29;19928;-82
2021/12/15 15:04:43;;;;;;;;;;;13.10;99.90;;;;;;4851404;29;19929;-81
2021/12/15 15:07:17;;;;;;;;;;;13.60;99.90;;;;;;4876112;29;19935;-78
2021/12/15 15:09:48;;;;;;;;;;;13.40;99.90;;;;;;4910141;29;20839;-80
2021/12/15 15:12:25;;;;;;;;;;;13.70;99.90;;;;;;4907565;29;19934;-80
2021/12/15 15:15:00;;;;;;;;;;;13.50;99.90;;;;;;4931449;29;19957;-79
2021/12/15 15:17:32;;;;;;;;;;;13.50;99.90;;;;;;4912466;29;19935;-79
2021/12/15 15:20:17;;;;;;;;;;;13.50;99.90;;;;;;4931090;29;19935;-80
2021/12/15 15:22:48;;;;;;;;;;;14.40;99.90;;;;;;4921142;29;19935;-82
2021/12/15 15:25:22;;;;;;;;;;;13.40;99.90;;;;;;4929696;29;19937;-82
2021/12/15 15:27:56;;;;;;;;;;;13.20;99.90;;;;;;4915987;29;19934;-83
2021/12/15 15:30:28;;;;;;;;;;;13.40;99.90;;;;;;4926736;29;19935;-82
2021/12/15 15:32:59;;;;;;;;;;;12.70;99.90;;;;;;4920008;29;19926;-83
2021/12/15 15:35:32;;;;;;;;;;;13.30;99.90;;;;;;4915904;29;19927;-82
2021/12/15 15:38:06;;;;;;;;;;;13.50;99.90;;;;;;4932539;29;20019;-81
2021/12/15 15:40:45;;;;;;;;;;;13.50;99.90;;;;;;4942304;29;19934;-83
2021/12/15 15:43:18;;;;;;;;;;;13.40;99.90;;;;;;4931463;29;19927;-81
2021/12/15 15:45:48;;;;;;;;;;;13.40;99.90;;;;;;4928633;29;19936;-82
2021/12/15 15:48:22;;;;;;;;;;;13.30;99.90;;;;;;4927121;29;19935;-82
2021/12/15 15:51:06;;;;;;;;;;;13.30;99.90;;;;;;4922899;29;19927;-84
2021/12/15 15:53:35;;;;;;;;;;;13.30;99.90;;;;;;4927764;29;19934;-83
2021/12/15 15:56:17;;;;;;;;;;;13.30;99.90;;;;;;4936508;29;19938;-82
2021/12/15 15:59:15;;;;;;;;;;;13.30;99.90;;;;;;4931545;29;19927;-82
2021/12/15 16:02:20;;;;;;;;;;;;;;;;;;;;;
2021/12/15 16:05:07;;;;;;;;;;;13.30;99.90;;;;;;4931572;29;19927;-82
2021/12/15 16:07:41;;;;;;;;;;;13.50;99.90;;;;;;4949022;29;19935;-80
2021/12/15 16:10:12;;;;;;;;;;;13.30;99.90;;;;;;4936371;29;19931;-85
2021/12/15 16:12:46;;;;;;;;;;;13.20;99.90;;;;;;4951701;29;19927;-80
2021/12/15 16:15:16;;;;;;;;;;;13.40;99.90;;;;;;4935298;29;19927;-81
2021/12/15 16:18:00;;;;;;;;;;;14.20;99.90;;;;;;4950857;29;19937;-81
2021/12/15 16:22:50;;;;;;;;;;;12.10;99.90;;;;;;4950967;29;19933;-81
2021/12/15 16:23:32;;;;;;;;;;;13.20;99.90;;;;;;4928775;29;19927;-81
2021/12/15 16:26:11;;;;;;;;;;;13.40;99.90;;;;;;4950544;29;19938;-80
2021/12/15 16:28:44;;;;;;;;;;;13.50;99.90;;;;;;4949513;29;19927;-81
2021/12/15 16:31:42;;;;;;;;;;;13.30;99.90;;;;;;4950016;29;19941;-81
2021/12/15 16:34:17;;;;;;;;;;;13.50;99.90;;;;;;4948196;29;19931;-81
2021/12/15 16:36:59;;;;;;;;;;;;;;;;;;;;;
2021/12/15 16:39:44;;;;;;;;;;;13.20;99.90;;;;;;4945578;29;20238;-80
2021/12/15 16:42:26;;;;;;;;;;;13.60;99.90;;;;;;4947684;29;20047;-80
2021/12/15 16:45:00;;;;;;;;;;;11.70;99.90;;;;;;4951145;29;19937;-80
2021/12/15 16:47:49;;;;;;;;;;;13.30;99.90;;;;;;4952315;29;19931;-80
2021/12/15 16:50:24;;;;;;;;;;;13.30;99.90;;;;;;4948878;29;19931;-79
2021/12/15 16:53:06;;;;;;;;;;;13.20;99.90;;;;;;4931523;29;19925;-80
2021/12/15 16:55:38;;;;;;;;;;;13.30;99.90;;;;;;4942624;29;19927;-82
2021/12/15 16:58:16;;;;;;;;;;;13.20;99.90;;;;;;4948537;29;19941;-81
2021/12/15 17:00:47;;;;;;;;;;;12.70;99.90;;;;;;4947681;29;19927;-82
2021/12/15 17:03:19;;;;;;;;;;;13.20;99.90;;;;;;4953214;29;19911;-82
2021/12/15 17:06:09;;;;;;;;;;;12.90;99.90;;;;;;4959368;29;19915;-81
2021/12/15 17:09:19;;;;;;;;;;;13.50;99.90;;;;;;4943442;29;19927;-86
2021/12/15 17:11:48;;;;;;;;;;;13.10;99.90;;;;;;4949151;29;19927;-82
2021/12/15 17:14:17;;;;;;;;;;;12.30;99.90;;;;;;4951004;29;19927;-82
2021/12/15 17:16:46;;;;;;;;;;;13.10;99.90;;;;;;4946409;29;19935;-82
2021/12/15 17:19:17;;;;;;;;;;;13.20;99.90;;;;;;4936665;29;19926;-80
2021/12/15 17:21:50;;;;;;;;;;;13.20;99.90;;;;;;4930375;29;19915;-82
2021/12/15 17:24:28;;;;;;;;;;;14.20;99.90;;;;;;4953722;29;19935;-81
2021/12/15 17:26:56;;;;;;;;;;;13.10;99.90;;;;;;4953845;29;19926;-82
2021/12/15 17:29:32;;;;;;;;;;;14.10;99.90;;;;;;4946811;29;19931;-84
2021/12/15 17:32:09;;;;;;;;;;;13.20;99.90;;;;;;4951091;29;19931;-83
2021/12/15 17:34:41;;;;;;;;;;;14.10;99.90;;;;;;4926063;29;19926;-81
2021/12/15 17:37:11;;;;;;;;;;;13.20;99.90;;;;;;4948423;29;19945;-81
2021/12/15 17:39:41;;;;;;;;;;;13.00;99.90;;;;;;4944136;29;20000;-82
2021/12/15 17:42:10;;;;;;;;;;;12.70;99.90;;;;;;4947391;29;19930;-82
2021/12/15 17:44:52;;;;;;;;;;;13.20;99.90;;;;;;4934765;29;20100;-84
2021/12/15 17:47:34;;;;;;;;;;;12.60;99.90;;;;;;4933580;29;19937;-82
2021/12/15 17:50:36;;;;;;;;;;;12.80;99.90;;;;;;4951277;29;19931;-87
2021/12/15 17:53:10;;;;;;;;;;;13.30;99.90;;;;;;4953400;29;19934;-81
2021/12/15 17:55:44;;;;;;;;;;;13.20;99.90;;;;;;4949169;29;19953;-81
2021/12/15 17:58:20;;;;;;;;;;;13.10;99.90;;;;;;4949069;29;19931;-84
2021/12/15 18:00:57;;;;;;;;;;;13.10;99.90;;;;;;4931931;29;19927;-81
2021/12/15 18:03:47;;;;;;;;;;;12.30;99.90;;;;;;4933495;29;19926;-86
2021/12/15 18:06:32;;;;;;;;;;;13.10;99.90;;;;;;4931555;29;19953;-82
2021/12/15 18:09:01;;;;;;;;;;;13.10;99.90;;;;;;4931228;29;19941;-82
2021/12/15 18:11:38;;;;;;;;;;;13.10;99.90;;;;;;4935143;29;19931;-86